Main page
METAR-TAF:

METAR-TAF

Airports :

Aigen im Ennstal, Austria

latitude: 47-32N, longitude: 014-08E, elevation: 638 m

METAR: missing

Time: 04:37 (02:37 UTC)

Forecast

The report was made 15 hours and 22 minutes ago, at 11:15 UTC
Forecast valid from 25 at 12 UTC to 25 at 21 UTC
Wind 3 kt from variable directions
Visibility 10 km or more
Few clouds at a height of 3000 ft
Broken clouds at a height of 6000 ft
Temporary
from 25 at 12 UTC to 25 at 18 UTC
Wind 10 kt from the Southwest
Few clouds at a height of 2500 ft
Scattered clouds at a height of 3000 ft
Broken clouds at a height of 5000 ft
light rain showers

TAF: LOXA 251115Z 2512/2521 VRB03KT 9999 FEW030 BKN060 TEMPO 2512/2518 23010KT -SHRA FEW025 SCT030 BKN050

Weather observations and forecasts of more than 4000 airports (METAR and TAF reports).

The available stations are represented by yellow and red dots on the map.

Hover mouse over dot to see the name of the station.

Then click to see weather observations and forecasts.

To change the map : click on the green buttons with a black cross to zoom in, on the green button with a dash to zoom out, or on the green arrows for adjacent maps.


METAR-TAF: